KBTP/BTP METAR and TAF weather

Enter ICAO airport designator
Station Type Date Time Source
KBTP METAR 2022/09/28 18:56 UTC NOAA

KBTP 281856Z AUTO 28007KT 10SM -RA OVC065 14/10 A3027 RMK AO2 RAE05B49 SLP259 P0000 T01390100 TSNO


Station Type Date Time Source
KBTP Decoded METAR 2022/09/28 18:56 UTC NOAA

Butler, Butler County Airport/K W Scholter Field, PA, United States (KBTP) 40-47N 079-57W
Sep 28, 2022 - 02:56 PM EDT / 2022.09.28 1856 UTC
Wind: from the W (280 degrees) at 8 MPH (7 KT):0
Visibility: 10 mile(s):0
Sky conditions: overcast
Weather: light rain
Precipitation last hour: A trace
Temperature: 57.0 F (13.9 C)
Dew Point: 50.0 F (10.0 C)
Relative Humidity: 77%
Pressure (altimeter): 30.27 in. Hg (1025 hPa)
ob: KBTP 281856Z AUTO 28007KT 10SM -RA OVC065 14/10 A3027 RMK AO2 RAE05B49 SLP259 P0000 T01390100 TSNO
cycle: 19

Station Type Date Time Source
KBTP TAF UTC NOAA

Error!

Example: see airport list